• Join FlightAware (Why Join?)
  • Login
  • US Flag 
10:13PM EDT


 

Airport Tracker/Info


-or-


 

Live Flight TrackerFlight Track Log ✈ SWA1718 ✈ 30-Apr-2013 ✈ KAMA - KDEN

Flight Track Log - Related Links

Times and Time Zones

All times are in EDT time to prevent confusion due to time zone crossing. See the SWA1718 flight status page for this flight to view local times or setup timezone preferences in your user account.

Time Position Orientation Groundspeed Altitude Reporting Facility
EDT Latitude Longitude Course Direction KTS MPH feet Rate Location/Type
04:59PM 35.3825 -101.8469 341° North 293 337 11,100  Level Albuquerque Center
05:00PM 35.4639 -101.8831 340° North 305 351 14,100 2,400 Climbing Albuquerque Center
05:01PM 35.5494 -101.9214 340° North 319 367 16,100 2,640 Climbing Albuquerque Center
05:02PM 35.7989 -101.9629 342° North  Level FlightAware Approximate
05:02PM 35.6575 -101.9656 342° North 337 388 19,600  Level Albuquerque Center
05:03PM 35.8952 -102.0135 332° Northwest  Level FlightAware Approximate
05:03PM 35.7461 -102.0047 340° North 338 389 21,600  Level Albuquerque Center
05:04PM 35.8422 -102.0433 342° North 353 406 22,600 1,260 Climbing Albuquerque Center
05:05PM 35.9478 -102.0906 340° North 393 452 24,300 1,500 Climbing Albuquerque Center
05:06PM 36.0575 -102.1367 341° North 411 473 25,800 1,560 Climbing Albuquerque Center
05:07PM 36.1694 -102.1825 342° North 420 483 27,600 1,560 Climbing Albuquerque Center
05:08PM 36.3036 -102.2436 340° North 426 490 29,100 1,500 Climbing Albuquerque Center
05:09PM 36.4211 -102.2931 341° North 439 505 30,700 1,560 Climbing Albuquerque Center
05:10PM 36.5350 -102.3439 340° North 437 503 32,400 1,440 Climbing Albuquerque Center
05:11PM 36.6475 -102.3917 341° North 431 496 33,700 780 Climbing Albuquerque Center
05:12PM 36.7611 -102.4422 340° North 432 497 34,000 120 Climbing Albuquerque Center
05:13PM 36.8858 -102.4983 340° North 437 503 34,000  Level Albuquerque Center
05:14PM 37.0106 -102.5528 341° North 442 509 34,000  Level Albuquerque Center
05:15PM 37.1194 -102.6014 340° North 436 502 34,000  Level Albuquerque Center
05:16PM 37.2450 -102.6586 340° North 432 497 34,000  Level Albuquerque Center
05:17PM 37.3528 -102.7058 341° North 429 494 34,000  Level Albuquerque Center
05:18PM 37.4792 -102.7617 341° North 433 498 34,000  Level Denver Center
05:19PM 37.5872 -102.8036 343° North 428 493 34,000  Level Denver Center
05:20PM 37.7153 -102.8425 346° North 425 489 34,000  Level Denver Center
05:21PM 37.8142 -102.9069 333° Northwest 422 486 34,000  Level Denver Center
05:22PM 37.9214 -102.9978 326° Northwest 417 480 34,000  Level Denver Center
05:23PM 38.0131 -103.0722 327° Northwest 412 474 34,000  Level Denver Center
05:24PM 38.1214 -103.1614 327° Northwest 414 476 34,000  Level Denver Center
05:25PM 38.2122 -103.2378 327° Northwest 411 473 34,000  Level Denver Center
05:27PM 38.3133 -103.3219 327° Northwest 412 474 34,000  Level Denver Center
05:28PM 38.4061 -103.3994 327° Northwest 415 478 34,000 -300 Level Denver Center
05:29PM 38.5217 -103.4958 327° Northwest 420 483 33,400 -780 Descending Denver Center
05:30PM 38.6122 -103.5725 327° Northwest 410 472 32,400 -1,020 Descending Denver Center
05:31PM 38.7328 -103.6739 327° Northwest 408 470 31,100 -1,560 Descending Denver Center
05:32PM 38.8094 -103.7406 326° Northwest 416 479 29,000 -2,520 Descending Denver Center
05:33PM 38.9311 -103.8422 327° Northwest 408 470 26,000 -2,520 Descending Denver Center
05:34PM 39.0183 -103.9161 327° Northwest 395 455 23,800 -2,280 Descending Denver Center
05:35PM 39.1153 -104.0014 326° Northwest 383 441 21,300 -2,280 Descending Denver Center
05:36PM 39.1981 -104.0717 327° Northwest 377 434 19,100 -1,800 Descending Denver Center
05:37PM 39.2700 -104.1644 315° West 327 376 17,700 -1,620 Descending Denver Center
05:38PM 39.2936 -104.2725 286° West 310 357 15,800 -1,740 Descending Denver Center
05:39PM 39.3183 -104.3806 287° West 297 342 14,200 -1,980 Descending Denver Center
05:40PM 39.3675 -104.4678 306° West 304 350 11,800 -2,040 Descending Denver Center
05:41PM 39.4181 -104.5667 304° West 307 353 10,000 -900 Descending Denver Center
05:42PM 39.4919 -104.6253 329° Northwest 309 356 10,000 -540 Level Denver Center
05:43PM 39.5736 -104.6639 340° North 317 365 9,000 -540 Descending Denver Center
05:44PM 39.6544 -104.6631 360° North 272 313 9,000 -660 Level Denver Center
05:45PM 39.7144 -104.6625 360° North 224 258 7,700 -1,200 Descending Denver Center
05:46PM 39.7675 -104.6617 North 186 214 6,600 -900 Descending Denver Center
05:47PM 39.8089 -104.6617 360° North 156 180 5,900 -600 Descending Denver Center
05:48PM 39.8447 -104.6608 North 148 170 5,400 -540 Descending Denver Center
05:50PM 39.8500 -104.6667 North  Level FlightAware Approximate
05:57PM 39.8617 -104.6732 North  Level Estimated
05:58PM 39.8617 -104.6732 North  Level Estimated
05:59PM 39.8617 -104.6732 North  Level Estimated